sensor_id;sensor_type;location;lat;lon;timestamp;P1;durP1;ratioP1;P2;durP2;ratioP2
15665;SDS011;20725;51.196;3.510;2023-11-22T00:00:32;31.07;;;18.80;;
15665;SDS011;20725;51.196;3.510;2023-11-22T00:02:59;33.40;;;19.93;;
15665;SDS011;20725;51.196;3.510;2023-11-22T00:05:27;35.37;;;19.90;;
15665;SDS011;20725;51.196;3.510;2023-11-22T00:07:55;28.83;;;19.20;;
15665;SDS011;20725;51.196;3.510;2023-11-22T00:10:22;32.77;;;19.50;;
15665;SDS011;20725;51.196;3.510;2023-11-22T00:12:49;30.03;;;19.70;;
15665;SDS011;20725;51.196;3.510;2023-11-22T00:15:17;32.43;;;19.93;;
15665;SDS011;20725;51.196;3.510;2023-11-22T00:17:44;31.50;;;19.67;;
15665;SDS011;20725;51.196;3.510;2023-11-22T00:20:12;29.83;;;19.83;;
15665;SDS011;20725;51.196;3.510;2023-11-22T00:22:41;29.00;;;19.03;;
15665;SDS011;20725;51.196;3.510;2023-11-22T00:25:10;32.77;;;20.07;;
15665;SDS011;20725;51.196;3.510;2023-11-22T00:27:38;27.63;;;18.73;;
15665;SDS011;20725;51.196;3.510;2023-11-22T00:30:07;30.90;;;18.47;;
15665;SDS011;20725;51.196;3.510;2023-11-22T00:32:35;31.07;;;18.70;;
15665;SDS011;20725;51.196;3.510;2023-11-22T00:35:02;31.57;;;19.17;;
15665;SDS011;20725;51.196;3.510;2023-11-22T00:37:29;29.07;;;17.43;;
15665;SDS011;20725;51.196;3.510;2023-11-22T00:39:58;31.80;;;18.07;;
15665;SDS011;20725;51.196;3.510;2023-11-22T00:42:26;35.60;;;19.40;;
15665;SDS011;20725;51.196;3.510;2023-11-22T00:44:53;31.67;;;18.57;;
15665;SDS011;20725;51.196;3.510;2023-11-22T00:47:21;38.80;;;20.43;;
15665;SDS011;20725;51.196;3.510;2023-11-22T00:49:48;33.27;;;19.13;;
15665;SDS011;20725;51.196;3.510;2023-11-22T00:52:16;32.90;;;20.17;;
15665;SDS011;20725;51.196;3.510;2023-11-22T00:54:44;35.37;;;19.33;;
15665;SDS011;20725;51.196;3.510;2023-11-22T00:57:12;36.90;;;19.17;;
15665;SDS011;20725;51.196;3.510;2023-11-22T00:59:40;33.83;;;18.10;;
15665;SDS011;20725;51.196;3.510;2023-11-22T01:02:07;32.07;;;18.03;;
15665;SDS011;20725;51.196;3.510;2023-11-22T01:04:34;35.97;;;19.37;;
15665;SDS011;20725;51.196;3.510;2023-11-22T01:07:02;39.07;;;20.40;;
15665;SDS011;20725;51.196;3.510;2023-11-22T01:09:30;35.47;;;20.20;;
15665;SDS011;20725;51.196;3.510;2023-11-22T01:11:58;35.77;;;18.17;;
15665;SDS011;20725;51.196;3.510;2023-11-22T01:14:26;35.13;;;18.83;;
15665;SDS011;20725;51.196;3.510;2023-11-22T01:16:54;36.17;;;18.77;;
15665;SDS011;20725;51.196;3.510;2023-11-22T01:19:21;41.50;;;20.53;;
15665;SDS011;20725;51.196;3.510;2023-11-22T01:21:51;38.10;;;19.83;;
15665;SDS011;20725;51.196;3.510;2023-11-22T01:24:18;41.33;;;20.87;;
15665;SDS011;20725;51.196;3.510;2023-11-22T01:26:46;40.83;;;20.43;;
15665;SDS011;20725;51.196;3.510;2023-11-22T01:29:13;45.47;;;21.03;;
15665;SDS011;20725;51.196;3.510;2023-11-22T01:31:42;47.93;;;20.93;;
15665;SDS011;20725;51.196;3.510;2023-11-22T01:34:09;40.13;;;20.13;;
15665;SDS011;20725;51.196;3.510;2023-11-22T01:36:38;39.10;;;18.93;;
15665;SDS011;20725;51.196;3.510;2023-11-22T01:39:05;45.80;;;22.73;;
15665;SDS011;20725;51.196;3.510;2023-11-22T01:41:32;45.93;;;20.57;;
15665;SDS011;20725;51.196;3.510;2023-11-22T01:44:00;45.20;;;20.07;;
15665;SDS011;20725;51.196;3.510;2023-11-22T01:46:27;45.93;;;22.60;;
15665;SDS011;20725;51.196;3.510;2023-11-22T01:48:56;44.37;;;21.07;;
15665;SDS011;20725;51.196;3.510;2023-11-22T01:51:24;52.13;;;23.83;;
15665;SDS011;20725;51.196;3.510;2023-11-22T01:53:52;48.73;;;22.60;;
15665;SDS011;20725;51.196;3.510;2023-11-22T01:56:20;48.80;;;21.67;;
15665;SDS011;20725;51.196;3.510;2023-11-22T01:58:47;52.50;;;23.00;;
15665;SDS011;20725;51.196;3.510;2023-11-22T02:01:15;48.13;;;21.83;;
15665;SDS011;20725;51.196;3.510;2023-11-22T02:03:42;48.07;;;21.47;;
15665;SDS011;20725;51.196;3.510;2023-11-22T02:06:14;48.67;;;22.40;;
15665;SDS011;20725;51.196;3.510;2023-11-22T02:08:42;51.13;;;23.77;;
15665;SDS011;20725;51.196;3.510;2023-11-22T02:11:09;51.63;;;23.30;;
15665;SDS011;20725;51.196;3.510;2023-11-22T02:13:37;48.80;;;21.80;;
15665;SDS011;20725;51.196;3.510;2023-11-22T02:16:05;55.10;;;23.33;;
15665;SDS011;20725;51.196;3.510;2023-11-22T02:18:33;63.03;;;23.90;;
15665;SDS011;20725;51.196;3.510;2023-11-22T02:21:02;56.83;;;24.30;;
15665;SDS011;20725;51.196;3.510;2023-11-22T02:23:31;51.63;;;23.90;;
15665;SDS011;20725;51.196;3.510;2023-11-22T02:25:58;55.63;;;22.80;;
15665;SDS011;20725;51.196;3.510;2023-11-22T02:28:26;53.07;;;23.57;;
15665;SDS011;20725;51.196;3.510;2023-11-22T02:30:53;43.50;;;21.97;;
15665;SDS011;20725;51.196;3.510;2023-11-22T02:33:21;49.90;;;23.47;;
15665;SDS011;20725;51.196;3.510;2023-11-22T02:35:48;47.50;;;21.90;;
15665;SDS011;20725;51.196;3.510;2023-11-22T02:38:16;53.80;;;23.27;;
15665;SDS011;20725;51.196;3.510;2023-11-22T02:40:45;47.77;;;23.30;;
15665;SDS011;20725;51.196;3.510;2023-11-22T02:43:14;47.80;;;21.43;;
15665;SDS011;20725;51.196;3.510;2023-11-22T02:45:41;54.87;;;22.07;;
15665;SDS011;20725;51.196;3.510;2023-11-22T02:48:08;46.57;;;21.87;;
15665;SDS011;20725;51.196;3.510;2023-11-22T02:50:36;48.70;;;23.03;;
15665;SDS011;20725;51.196;3.510;2023-11-22T02:53:04;52.00;;;22.00;;
15665;SDS011;20725;51.196;3.510;2023-11-22T02:55:32;46.30;;;21.53;;
15665;SDS011;20725;51.196;3.510;2023-11-22T02:58:01;46.73;;;21.33;;
15665;SDS011;20725;51.196;3.510;2023-11-22T03:00:28;48.43;;;21.93;;
15665;SDS011;20725;51.196;3.510;2023-11-22T03:02:55;53.17;;;22.60;;
15665;SDS011;20725;51.196;3.510;2023-11-22T03:05:23;51.10;;;22.20;;
15665;SDS011;20725;51.196;3.510;2023-11-22T03:07:50;48.77;;;20.27;;
15665;SDS011;20725;51.196;3.510;2023-11-22T03:10:17;45.60;;;20.97;;
15665;SDS011;20725;51.196;3.510;2023-11-22T03:12:44;42.77;;;20.50;;
15665;SDS011;20725;51.196;3.510;2023-11-22T03:15:14;49.00;;;21.07;;
15665;SDS011;20725;51.196;3.510;2023-11-22T03:17:41;44.10;;;20.83;;
15665;SDS011;20725;51.196;3.510;2023-11-22T03:20:09;36.90;;;19.57;;
15665;SDS011;20725;51.196;3.510;2023-11-22T03:22:36;43.50;;;21.40;;
15665;SDS011;20725;51.196;3.510;2023-11-22T03:25:04;52.13;;;22.33;;
15665;SDS011;20725;51.196;3.510;2023-11-22T03:27:32;52.33;;;23.07;;
15665;SDS011;20725;51.196;3.510;2023-11-22T03:29:59;42.43;;;20.50;;
15665;SDS011;20725;51.196;3.510;2023-11-22T03:32:28;42.77;;;20.83;;
15665;SDS011;20725;51.196;3.510;2023-11-22T03:34:55;39.13;;;18.37;;
15665;SDS011;20725;51.196;3.510;2023-11-22T03:37:23;44.33;;;19.77;;
15665;SDS011;20725;51.196;3.510;2023-11-22T03:39:50;38.60;;;19.43;;
15665;SDS011;20725;51.196;3.510;2023-11-22T03:42:18;41.20;;;19.70;;
15665;SDS011;20725;51.196;3.510;2023-11-22T03:44:46;47.43;;;21.50;;
15665;SDS011;20725;51.196;3.510;2023-11-22T03:47:14;45.73;;;21.00;;
15665;SDS011;20725;51.196;3.510;2023-11-22T03:49:43;45.80;;;21.37;;
15665;SDS011;20725;51.196;3.510;2023-11-22T03:52:10;46.90;;;21.63;;
15665;SDS011;20725;51.196;3.510;2023-11-22T03:54:39;48.57;;;22.10;;
15665;SDS011;20725;51.196;3.510;2023-11-22T03:57:06;51.77;;;23.47;;
15665;SDS011;20725;51.196;3.510;2023-11-22T03:59:34;50.73;;;23.30;;
15665;SDS011;20725;51.196;3.510;2023-11-22T04:02:01;47.97;;;22.83;;
15665;SDS011;20725;51.196;3.510;2023-11-22T04:04:29;43.30;;;22.13;;
15665;SDS011;20725;51.196;3.510;2023-11-22T04:06:58;47.57;;;21.97;;
15665;SDS011;20725;51.196;3.510;2023-11-22T04:09:25;41.90;;;20.20;;
15665;SDS011;20725;51.196;3.510;2023-11-22T04:11:52;44.93;;;22.20;;
15665;SDS011;20725;51.196;3.510;2023-11-22T04:14:19;45.57;;;22.47;;
15665;SDS011;20725;51.196;3.510;2023-11-22T04:16:47;46.13;;;23.20;;
15665;SDS011;20725;51.196;3.510;2023-11-22T04:19:14;45.70;;;22.37;;
15665;SDS011;20725;51.196;3.510;2023-11-22T04:21:41;40.90;;;20.83;;
15665;SDS011;20725;51.196;3.510;2023-11-22T04:24:10;47.73;;;22.67;;
15665;SDS011;20725;51.196;3.510;2023-11-22T04:26:38;37.03;;;19.60;;
15665;SDS011;20725;51.196;3.510;2023-11-22T04:29:05;40.00;;;20.80;;
15665;SDS011;20725;51.196;3.510;2023-11-22T04:31:33;46.07;;;22.20;;
15665;SDS011;20725;51.196;3.510;2023-11-22T04:34:00;41.97;;;21.20;;
15665;SDS011;20725;51.196;3.510;2023-11-22T04:36:27;32.90;;;19.47;;
15665;SDS011;20725;51.196;3.510;2023-11-22T04:38:55;43.93;;;20.53;;
15665;SDS011;20725;51.196;3.510;2023-11-22T04:41:24;37.87;;;20.57;;
15665;SDS011;20725;51.196;3.510;2023-11-22T04:43:51;39.87;;;21.10;;
15665;SDS011;20725;51.196;3.510;2023-11-22T04:46:18;41.33;;;21.47;;
15665;SDS011;20725;51.196;3.510;2023-11-22T04:48:46;38.90;;;20.47;;
15665;SDS011;20725;51.196;3.510;2023-11-22T04:51:16;41.70;;;21.53;;
15665;SDS011;20725;51.196;3.510;2023-11-22T04:53:44;44.80;;;22.10;;
15665;SDS011;20725;51.196;3.510;2023-11-22T04:56:11;43.03;;;21.30;;
15665;SDS011;20725;51.196;3.510;2023-11-22T04:58:39;31.23;;;17.83;;
15665;SDS011;20725;51.196;3.510;2023-11-22T05:01:07;37.57;;;20.03;;
15665;SDS011;20725;51.196;3.510;2023-11-22T05:03:35;37.57;;;19.97;;
15665;SDS011;20725;51.196;3.510;2023-11-22T05:06:03;40.63;;;20.10;;
15665;SDS011;20725;51.196;3.510;2023-11-22T05:08:30;34.40;;;20.37;;
15665;SDS011;20725;51.196;3.510;2023-11-22T05:10:59;35.93;;;19.47;;
15665;SDS011;20725;51.196;3.510;2023-11-22T05:13:28;39.97;;;19.63;;
15665;SDS011;20725;51.196;3.510;2023-11-22T05:15:57;44.83;;;20.70;;
15665;SDS011;20725;51.196;3.510;2023-11-22T05:18:26;44.70;;;21.97;;
15665;SDS011;20725;51.196;3.510;2023-11-22T05:20:53;41.07;;;21.30;;
15665;SDS011;20725;51.196;3.510;2023-11-22T05:23:20;46.47;;;20.53;;
15665;SDS011;20725;51.196;3.510;2023-11-22T05:25:48;42.37;;;19.70;;
15665;SDS011;20725;51.196;3.510;2023-11-22T05:28:15;45.57;;;22.33;;
15665;SDS011;20725;51.196;3.510;2023-11-22T05:30:42;41.37;;;19.13;;
15665;SDS011;20725;51.196;3.510;2023-11-22T05:33:11;46.87;;;21.13;;
15665;SDS011;20725;51.196;3.510;2023-11-22T05:35:38;47.90;;;21.40;;
15665;SDS011;20725;51.196;3.510;2023-11-22T05:38:06;49.77;;;21.07;;
15665;SDS011;20725;51.196;3.510;2023-11-22T05:40:35;33.70;;;17.57;;
15665;SDS011;20725;51.196;3.510;2023-11-22T05:43:02;31.90;;;17.67;;
15665;SDS011;20725;51.196;3.510;2023-11-22T05:45:29;40.43;;;17.87;;
15665;SDS011;20725;51.196;3.510;2023-11-22T05:47:57;50.90;;;20.43;;
15665;SDS011;20725;51.196;3.510;2023-11-22T05:50:25;47.30;;;21.47;;
15665;SDS011;20725;51.196;3.510;2023-11-22T05:52:53;45.07;;;19.93;;
15665;SDS011;20725;51.196;3.510;2023-11-22T05:55:20;34.87;;;17.93;;
15665;SDS011;20725;51.196;3.510;2023-11-22T05:57:48;36.23;;;19.73;;
15665;SDS011;20725;51.196;3.510;2023-11-22T06:00:15;39.47;;;20.10;;
15665;SDS011;20725;51.196;3.510;2023-11-22T06:02:42;41.50;;;19.43;;
15665;SDS011;20725;51.196;3.510;2023-11-22T06:05:10;38.23;;;19.07;;
15665;SDS011;20725;51.196;3.510;2023-11-22T06:07:39;44.57;;;20.03;;
15665;SDS011;20725;51.196;3.510;2023-11-22T06:10:06;41.80;;;19.33;;
15665;SDS011;20725;51.196;3.510;2023-11-22T06:12:34;40.73;;;18.50;;
15665;SDS011;20725;51.196;3.510;2023-11-22T06:15:02;40.63;;;19.23;;
15665;SDS011;20725;51.196;3.510;2023-11-22T06:17:31;42.37;;;18.80;;
15665;SDS011;20725;51.196;3.510;2023-11-22T06:19:58;40.93;;;18.20;;
15665;SDS011;20725;51.196;3.510;2023-11-22T06:22:25;41.57;;;19.70;;
15665;SDS011;20725;51.196;3.510;2023-11-22T06:24:54;41.50;;;19.00;;
15665;SDS011;20725;51.196;3.510;2023-11-22T06:27:21;43.23;;;19.17;;
15665;SDS011;20725;51.196;3.510;2023-11-22T06:29:49;48.13;;;21.17;;
15665;SDS011;20725;51.196;3.510;2023-11-22T06:32:16;42.87;;;19.93;;
15665;SDS011;20725;51.196;3.510;2023-11-22T06:34:43;44.90;;;20.80;;
15665;SDS011;20725;51.196;3.510;2023-11-22T06:37:11;42.13;;;23.07;;
15665;SDS011;20725;51.196;3.510;2023-11-22T06:39:39;56.27;;;25.33;;
15665;SDS011;20725;51.196;3.510;2023-11-22T06:42:07;52.30;;;23.60;;
15665;SDS011;20725;51.196;3.510;2023-11-22T06:44:35;55.27;;;24.43;;
15665;SDS011;20725;51.196;3.510;2023-11-22T06:47:03;59.30;;;23.37;;
15665;SDS011;20725;51.196;3.510;2023-11-22T06:49:31;72.00;;;26.50;;
15665;SDS011;20725;51.196;3.510;2023-11-22T06:51:58;58.83;;;25.43;;
15665;SDS011;20725;51.196;3.510;2023-11-22T06:54:26;61.33;;;25.17;;
15665;SDS011;20725;51.196;3.510;2023-11-22T06:56:53;56.03;;;22.37;;
15665;SDS011;20725;51.196;3.510;2023-11-22T06:59:22;54.77;;;23.60;;
15665;SDS011;20725;51.196;3.510;2023-11-22T07:01:50;52.17;;;23.80;;
15665;SDS011;20725;51.196;3.510;2023-11-22T07:04:18;47.63;;;22.63;;
15665;SDS011;20725;51.196;3.510;2023-11-22T07:06:46;46.80;;;21.67;;
15665;SDS011;20725;51.196;3.510;2023-11-22T07:09:14;48.80;;;22.47;;
15665;SDS011;20725;51.196;3.510;2023-11-22T07:11:41;46.87;;;21.97;;
15665;SDS011;20725;51.196;3.510;2023-11-22T07:14:10;43.73;;;22.07;;
15665;SDS011;20725;51.196;3.510;2023-11-22T07:16:40;53.63;;;23.00;;
15665;SDS011;20725;51.196;3.510;2023-11-22T07:19:08;43.83;;;20.63;;
15665;SDS011;20725;51.196;3.510;2023-11-22T07:21:37;45.37;;;19.73;;
15665;SDS011;20725;51.196;3.510;2023-11-22T07:24:05;45.90;;;21.10;;
15665;SDS011;20725;51.196;3.510;2023-11-22T07:26:34;44.13;;;20.33;;
15665;SDS011;20725;51.196;3.510;2023-11-22T07:29:02;57.07;;;24.53;;
15665;SDS011;20725;51.196;3.510;2023-11-22T07:31:31;46.33;;;21.27;;
15665;SDS011;20725;51.196;3.510;2023-11-22T07:34:02;51.93;;;22.77;;
15665;SDS011;20725;51.196;3.510;2023-11-22T07:36:31;46.97;;;22.13;;
15665;SDS011;20725;51.196;3.510;2023-11-22T07:38:59;46.80;;;21.87;;
15665;SDS011;20725;51.196;3.510;2023-11-22T07:41:27;63.73;;;24.40;;
15665;SDS011;20725;51.196;3.510;2023-11-22T07:43:56;57.37;;;24.00;;
15665;SDS011;20725;51.196;3.510;2023-11-22T07:46:24;47.50;;;22.37;;
15665;SDS011;20725;51.196;3.510;2023-11-22T07:48:52;51.80;;;23.13;;
15665;SDS011;20725;51.196;3.510;2023-11-22T07:51:22;54.43;;;23.00;;
15665;SDS011;20725;51.196;3.510;2023-11-22T07:53:50;54.93;;;23.17;;
15665;SDS011;20725;51.196;3.510;2023-11-22T07:56:20;52.30;;;22.23;;
15665;SDS011;20725;51.196;3.510;2023-11-22T07:58:48;49.97;;;23.30;;
15665;SDS011;20725;51.196;3.510;2023-11-22T08:01:15;45.57;;;22.53;;
15665;SDS011;20725;51.196;3.510;2023-11-22T08:03:43;49.27;;;23.20;;
15665;SDS011;20725;51.196;3.510;2023-11-22T08:06:11;51.70;;;21.97;;
15665;SDS011;20725;51.196;3.510;2023-11-22T08:08:41;48.67;;;21.90;;
15665;SDS011;20725;51.196;3.510;2023-11-22T08:11:10;39.10;;;19.03;;
15665;SDS011;20725;51.196;3.510;2023-11-22T08:13:41;42.53;;;21.27;;
15665;SDS011;20725;51.196;3.510;2023-11-22T08:16:10;38.40;;;18.60;;
15665;SDS011;20725;51.196;3.510;2023-11-22T08:18:41;34.50;;;19.57;;
15665;SDS011;20725;51.196;3.510;2023-11-22T08:21:08;37.67;;;20.67;;
15665;SDS011;20725;51.196;3.510;2023-11-22T08:23:37;38.20;;;20.33;;
15665;SDS011;20725;51.196;3.510;2023-11-22T08:26:06;35.13;;;20.80;;
15665;SDS011;20725;51.196;3.510;2023-11-22T08:28:35;27.00;;;19.43;;
15665;SDS011;20725;51.196;3.510;2023-11-22T08:31:02;27.73;;;19.43;;
15665;SDS011;20725;51.196;3.510;2023-11-22T08:33:34;32.43;;;22.53;;
15665;SDS011;20725;51.196;3.510;2023-11-22T08:36:02;24.60;;;18.87;;
15665;SDS011;20725;51.196;3.510;2023-11-22T08:38:30;22.30;;;18.30;;
15665;SDS011;20725;51.196;3.510;2023-11-22T08:40:58;22.77;;;16.87;;
15665;SDS011;20725;51.196;3.510;2023-11-22T08:43:27;23.33;;;17.47;;
15665;SDS011;20725;51.196;3.510;2023-11-22T08:45:57;18.93;;;15.73;;
15665;SDS011;20725;51.196;3.510;2023-11-22T08:48:25;19.57;;;16.07;;
15665;SDS011;20725;51.196;3.510;2023-11-22T08:50:53;18.20;;;16.30;;
15665;SDS011;20725;51.196;3.510;2023-11-22T08:53:22;23.27;;;18.27;;
15665;SDS011;20725;51.196;3.510;2023-11-22T08:55:50;17.17;;;15.43;;
15665;SDS011;20725;51.196;3.510;2023-11-22T08:58:19;19.50;;;17.30;;
15665;SDS011;20725;51.196;3.510;2023-11-22T09:00:48;18.40;;;16.50;;
15665;SDS011;20725;51.196;3.510;2023-11-22T09:03:16;19.90;;;17.07;;
15665;SDS011;20725;51.196;3.510;2023-11-22T09:05:44;17.80;;;15.90;;
15665;SDS011;20725;51.196;3.510;2023-11-22T09:08:12;20.50;;;18.37;;
15665;SDS011;20725;51.196;3.510;2023-11-22T09:10:40;23.07;;;18.33;;
15665;SDS011;20725;51.196;3.510;2023-11-22T09:13:07;23.00;;;18.90;;
15665;SDS011;20725;51.196;3.510;2023-11-22T09:15:35;21.57;;;19.23;;
15665;SDS011;20725;51.196;3.510;2023-11-22T09:18:05;21.20;;;18.93;;
15665;SDS011;20725;51.196;3.510;2023-11-22T09:20:33;22.60;;;18.83;;
15665;SDS011;20725;51.196;3.510;2023-11-22T09:23:00;20.53;;;18.47;;
15665;SDS011;20725;51.196;3.510;2023-11-22T09:25:29;20.17;;;18.03;;
15665;SDS011;20725;51.196;3.510;2023-11-22T09:27:59;20.17;;;18.10;;
15665;SDS011;20725;51.196;3.510;2023-11-22T09:30:28;19.30;;;17.50;;
15665;SDS011;20725;51.196;3.510;2023-11-22T09:33:00;21.23;;;17.40;;
15665;SDS011;20725;51.196;3.510;2023-11-22T09:35:29;19.53;;;17.53;;
15665;SDS011;20725;51.196;3.510;2023-11-22T09:37:58;20.87;;;17.80;;
15665;SDS011;20725;51.196;3.510;2023-11-22T09:40:27;20.30;;;18.20;;
15665;SDS011;20725;51.196;3.510;2023-11-22T09:42:57;25.23;;;19.47;;
15665;SDS011;20725;51.196;3.510;2023-11-22T09:45:25;25.93;;;19.10;;
15665;SDS011;20725;51.196;3.510;2023-11-22T09:47:54;22.77;;;18.67;;
15665;SDS011;20725;51.196;3.510;2023-11-22T09:50:23;22.03;;;19.67;;
15665;SDS011;20725;51.196;3.510;2023-11-22T09:52:52;20.83;;;18.67;;
15665;SDS011;20725;51.196;3.510;2023-11-22T09:55:22;19.67;;;17.47;;
15665;SDS011;20725;51.196;3.510;2023-11-22T09:57:52;21.30;;;17.63;;
15665;SDS011;20725;51.196;3.510;2023-11-22T10:00:20;20.80;;;18.60;;
15665;SDS011;20725;51.196;3.510;2023-11-22T10:02:49;22.20;;;19.47;;
15665;SDS011;20725;51.196;3.510;2023-11-22T10:05:17;20.20;;;18.13;;
15665;SDS011;20725;51.196;3.510;2023-11-22T10:07:45;23.40;;;18.53;;
15665;SDS011;20725;51.196;3.510;2023-11-22T10:10:16;22.73;;;20.33;;
15665;SDS011;20725;51.196;3.510;2023-11-22T10:12:43;26.43;;;19.63;;
15665;SDS011;20725;51.196;3.510;2023-11-22T10:15:12;24.00;;;19.43;;
15665;SDS011;20725;51.196;3.510;2023-11-22T10:17:39;23.87;;;20.00;;
15665;SDS011;20725;51.196;3.510;2023-11-22T10:20:07;23.60;;;19.10;;
15665;SDS011;20725;51.196;3.510;2023-11-22T10:22:45;22.97;;;18.63;;
15665;SDS011;20725;51.196;3.510;2023-11-22T10:25:15;21.27;;;19.07;;
15665;SDS011;20725;51.196;3.510;2023-11-22T10:27:44;20.47;;;17.67;;
15665;SDS011;20725;51.196;3.510;2023-11-22T10:30:12;20.80;;;18.63;;
15665;SDS011;20725;51.196;3.510;2023-11-22T10:32:40;20.97;;;18.77;;
15665;SDS011;20725;51.196;3.510;2023-11-22T10:35:07;19.67;;;17.87;;
15665;SDS011;20725;51.196;3.510;2023-11-22T10:37:35;20.07;;;16.73;;
15665;SDS011;20725;51.196;3.510;2023-11-22T10:40:02;19.57;;;17.77;;
15665;SDS011;20725;51.196;3.510;2023-11-22T10:42:33;18.27;;;16.30;;
15665;SDS011;20725;51.196;3.510;2023-11-22T10:45:00;23.07;;;17.07;;
15665;SDS011;20725;51.196;3.510;2023-11-22T10:47:29;18.93;;;17.13;;
15665;SDS011;20725;51.196;3.510;2023-11-22T10:49:56;17.70;;;16.17;;
15665;SDS011;20725;51.196;3.510;2023-11-22T10:52:26;19.03;;;17.30;;
15665;SDS011;20725;51.196;3.510;2023-11-22T10:54:55;18.67;;;16.97;;
15665;SDS011;20725;51.196;3.510;2023-11-22T10:57:31;18.43;;;16.73;;
15665;SDS011;20725;51.196;3.510;2023-11-22T11:00:02;19.10;;;17.20;;
15665;SDS011;20725;51.196;3.510;2023-11-22T11:02:34;18.77;;;17.07;;
15665;SDS011;20725;51.196;3.510;2023-11-22T11:05:03;18.97;;;17.27;;
15665;SDS011;20725;51.196;3.510;2023-11-22T11:07:37;18.63;;;16.80;;
15665;SDS011;20725;51.196;3.510;2023-11-22T11:10:07;17.47;;;15.83;;
15665;SDS011;20725;51.196;3.510;2023-11-22T11:12:35;17.63;;;16.00;;
15665;SDS011;20725;51.196;3.510;2023-11-22T11:15:04;19.13;;;16.50;;
15665;SDS011;20725;51.196;3.510;2023-11-22T11:17:33;17.07;;;15.57;;
15665;SDS011;20725;51.196;3.510;2023-11-22T11:20:00;16.80;;;15.20;;
15665;SDS011;20725;51.196;3.510;2023-11-22T11:22:27;16.03;;;14.63;;
15665;SDS011;20725;51.196;3.510;2023-11-22T11:24:59;18.33;;;16.63;;
15665;SDS011;20725;51.196;3.510;2023-11-22T11:27:28;18.73;;;16.83;;
15665;SDS011;20725;51.196;3.510;2023-11-22T11:29:55;19.20;;;17.40;;
15665;SDS011;20725;51.196;3.510;2023-11-22T11:32:31;17.43;;;15.53;;
15665;SDS011;20725;51.196;3.510;2023-11-22T11:35:00;18.57;;;16.67;;
15665;SDS011;20725;51.196;3.510;2023-11-22T11:37:31;19.77;;;16.53;;
15665;SDS011;20725;51.196;3.510;2023-11-22T11:39:59;18.57;;;16.63;;
15665;SDS011;20725;51.196;3.510;2023-11-22T11:42:26;17.23;;;15.63;;
15665;SDS011;20725;51.196;3.510;2023-11-22T11:45:03;17.87;;;15.97;;
15665;SDS011;20725;51.196;3.510;2023-11-22T11:47:33;17.57;;;16.07;;
15665;SDS011;20725;51.196;3.510;2023-11-22T11:50:01;17.67;;;15.93;;
15665;SDS011;20725;51.196;3.510;2023-11-22T11:52:29;18.63;;;16.83;;
15665;SDS011;20725;51.196;3.510;2023-11-22T11:54:57;17.87;;;16.20;;
15665;SDS011;20725;51.196;3.510;2023-11-22T11:57:25;17.90;;;16.30;;
15665;SDS011;20725;51.196;3.510;2023-11-22T11:59:52;16.80;;;14.80;;
15665;SDS011;20725;51.196;3.510;2023-11-22T12:02:21;18.77;;;15.43;;
15665;SDS011;20725;51.196;3.510;2023-11-22T12:04:50;17.10;;;15.43;;
15665;SDS011;20725;51.196;3.510;2023-11-22T12:07:17;19.03;;;17.17;;
15665;SDS011;20725;51.196;3.510;2023-11-22T12:09:45;18.80;;;16.87;;
15665;SDS011;20725;51.196;3.510;2023-11-22T12:12:12;18.73;;;16.63;;
15665;SDS011;20725;51.196;3.510;2023-11-22T12:14:40;18.10;;;16.13;;
15665;SDS011;20725;51.196;3.510;2023-11-22T12:17:08;17.90;;;16.10;;
15665;SDS011;20725;51.196;3.510;2023-11-22T12:19:36;21.20;;;17.77;;
15665;SDS011;20725;51.196;3.510;2023-11-22T12:22:06;18.07;;;16.27;;
15665;SDS011;20725;51.196;3.510;2023-11-22T12:24:33;19.47;;;17.33;;
15665;SDS011;20725;51.196;3.510;2023-11-22T12:27:03;18.77;;;16.87;;
15665;SDS011;20725;51.196;3.510;2023-11-22T12:29:35;20.53;;;18.47;;
15665;SDS011;20725;51.196;3.510;2023-11-22T12:32:03;21.27;;;18.53;;
15665;SDS011;20725;51.196;3.510;2023-11-22T12:34:31;20.90;;;18.77;;
15665;SDS011;20725;51.196;3.510;2023-11-22T12:36:59;23.67;;;19.23;;
15665;SDS011;20725;51.196;3.510;2023-11-22T12:39:29;25.43;;;21.03;;
15665;SDS011;20725;51.196;3.510;2023-11-22T12:41:57;27.43;;;20.90;;
15665;SDS011;20725;51.196;3.510;2023-11-22T12:44:24;21.70;;;19.40;;
15665;SDS011;20725;51.196;3.510;2023-11-22T12:46:53;23.60;;;18.80;;
15665;SDS011;20725;51.196;3.510;2023-11-22T12:49:22;19.77;;;17.37;;
15665;SDS011;20725;51.196;3.510;2023-11-22T12:51:50;24.40;;;20.17;;
15665;SDS011;20725;51.196;3.510;2023-11-22T12:54:17;24.13;;;20.13;;
15665;SDS011;20725;51.196;3.510;2023-11-22T12:56:48;24.93;;;20.47;;
15665;SDS011;20725;51.196;3.510;2023-11-22T12:59:22;21.80;;;19.30;;
15665;SDS011;20725;51.196;3.510;2023-11-22T13:01:52;21.20;;;18.90;;
15665;SDS011;20725;51.196;3.510;2023-11-22T13:04:21;23.27;;;20.10;;
15665;SDS011;20725;51.196;3.510;2023-11-22T13:06:48;27.57;;;20.17;;
15665;SDS011;20725;51.196;3.510;2023-11-22T13:09:16;22.13;;;19.07;;
15665;SDS011;20725;51.196;3.510;2023-11-22T13:11:43;24.93;;;18.23;;
15665;SDS011;20725;51.196;3.510;2023-11-22T13:14:12;20.17;;;16.80;;
15665;SDS011;20725;51.196;3.510;2023-11-22T13:16:40;19.87;;;15.07;;
15665;SDS011;20725;51.196;3.510;2023-11-22T13:19:08;18.63;;;15.93;;
15665;SDS011;20725;51.196;3.510;2023-11-22T13:21:35;19.93;;;15.37;;
15665;SDS011;20725;51.196;3.510;2023-11-22T13:24:03;20.47;;;16.40;;
15665;SDS011;20725;51.196;3.510;2023-11-22T13:26:31;21.10;;;16.10;;
15665;SDS011;20725;51.196;3.510;2023-11-22T13:28:59;20.00;;;16.23;;
15665;SDS011;20725;51.196;3.510;2023-11-22T13:31:28;19.17;;;16.23;;
15665;SDS011;20725;51.196;3.510;2023-11-22T13:33:55;21.90;;;15.97;;
15665;SDS011;20725;51.196;3.510;2023-11-22T13:36:22;21.37;;;16.67;;
15665;SDS011;20725;51.196;3.510;2023-11-22T13:38:50;18.77;;;16.20;;
15665;SDS011;20725;51.196;3.510;2023-11-22T13:41:20;19.13;;;15.67;;
15665;SDS011;20725;51.196;3.510;2023-11-22T13:43:49;19.57;;;16.13;;
15665;SDS011;20725;51.196;3.510;2023-11-22T13:46:16;20.43;;;16.67;;
15665;SDS011;20725;51.196;3.510;2023-11-22T13:48:45;22.23;;;17.43;;
15665;SDS011;20725;51.196;3.510;2023-11-22T13:51:13;18.23;;;16.27;;
15665;SDS011;20725;51.196;3.510;2023-11-22T13:53:40;18.77;;;15.83;;
15665;SDS011;20725;51.196;3.510;2023-11-22T13:56:09;22.10;;;15.43;;
15665;SDS011;20725;51.196;3.510;2023-11-22T13:58:36;20.40;;;15.83;;
15665;SDS011;20725;51.196;3.510;2023-11-22T14:01:05;16.87;;;14.57;;
15665;SDS011;20725;51.196;3.510;2023-11-22T14:03:37;17.93;;;14.67;;
15665;SDS011;20725;51.196;3.510;2023-11-22T14:06:06;18.80;;;15.77;;
15665;SDS011;20725;51.196;3.510;2023-11-22T14:08:37;19.50;;;15.70;;
15665;SDS011;20725;51.196;3.510;2023-11-22T14:11:05;19.27;;;14.50;;
15665;SDS011;20725;51.196;3.510;2023-11-22T14:13:32;21.03;;;16.03;;
15665;SDS011;20725;51.196;3.510;2023-11-22T14:16:00;19.97;;;16.73;;
15665;SDS011;20725;51.196;3.510;2023-11-22T14:18:28;18.53;;;15.57;;
15665;SDS011;20725;51.196;3.510;2023-11-22T14:20:57;20.90;;;17.03;;
15665;SDS011;20725;51.196;3.510;2023-11-22T14:23:26;23.00;;;15.33;;
15665;SDS011;20725;51.196;3.510;2023-11-22T14:25:54;15.70;;;13.27;;